Time;durP1;ratioP1;P1;durP2;ratioP2;P2;SDS_P1;SDS_P2;PMS_P1;PMS_P2;Temp;Humidity;BMP_temperature;BMP_pressure;BME280_temperature;BME280_humidity;BME280_pressure;Samples;Min_cycle;Max_cycle;Signal;HPM_P1;HPM_P2
2021/01/07 00:00:20;;;;;;;92.05;62.65;;;15.70;99.90;;;;;;4940273;29;20106;-70
2021/01/07 00:02:46;;;;;;;93.82;61.88;;;15.50;99.90;;;;;;4962111;28;20050;-70
2021/01/07 00:05:13;;;;;;;90.38;57.40;;;15.50;99.90;;;;;;4940369;29;20028;-70
2021/01/07 00:07:40;;;;;;;97.13;59.50;;;15.60;99.90;;;;;;4943053;29;20023;-72
2021/01/07 00:10:07;;;;;;;101.18;60.78;;;15.50;99.90;;;;;;4940088;28;20422;-72
2021/01/07 00:12:34;;;;;;;93.82;60.45;;;15.40;99.90;;;;;;4941906;28;20031;-73
2021/01/07 00:15:01;;;;;;;99.90;62.78;;;15.40;99.90;;;;;;4944138;29;20031;-70
2021/01/07 00:17:27;;;;;;;98.85;58.33;;;15.30;99.90;;;;;;4938248;28;20038;-73
2021/01/07 00:19:54;;;;;;;99.10;60.22;;;15.40;99.90;;;;;;4941751;28;20034;-70
2021/01/07 00:22:21;;;;;;;100.70;59.60;;;15.30;99.90;;;;;;4943518;28;20449;-72
2021/01/07 00:24:47;;;;;;;89.25;60.17;;;15.20;99.90;;;;;;4941397;29;20032;-72
2021/01/07 00:27:14;;;;;;;99.05;60.35;;;15.00;99.90;;;;;;4941431;28;20062;-72
2021/01/07 00:29:41;;;;;;;107.22;66.45;;;15.00;99.90;;;;;;4947980;28;20031;-73
2021/01/07 00:32:07;;;;;;;99.30;64.05;;;14.70;99.90;;;;;;4944075;28;20057;-72
2021/01/07 00:34:34;;;;;;;90.75;57.85;;;14.80;99.90;;;;;;4947125;28;20023;-72
2021/01/07 00:37:01;;;;;;;97.15;59.90;;;14.80;99.90;;;;;;4944614;28;20062;-73
2021/01/07 00:39:27;;;;;;;108.68;63.97;;;14.70;99.90;;;;;;4947012;28;20127;-74
2021/01/07 00:41:58;;;;;;;98.28;62.15;;;14.70;99.90;;;;;;4941927;29;20106;-74
2021/01/07 00:44:25;;;;;;;108.53;68.18;;;14.60;99.90;;;;;;4939427;29;20027;-73
2021/01/07 00:46:53;;;;;;;104.00;61.30;;;14.60;99.90;;;;;;4939920;29;20473;-73
2021/01/07 00:49:20;;;;;;;114.15;64.72;;;14.50;99.90;;;;;;4935501;29;20362;-73
2021/01/07 00:51:47;;;;;;;96.10;58.15;;;14.40;99.90;;;;;;4936195;28;20032;-72
2021/01/07 00:54:14;;;;;;;112.45;63.38;;;14.30;99.90;;;;;;4935534;28;20154;-72
2021/01/07 00:56:41;;;;;;;118.97;69.07;;;14.30;99.90;;;;;;4936550;28;20145;-73
2021/01/07 00:59:08;;;;;;;125.93;66.93;;;14.20;99.90;;;;;;4935979;29;20041;-72
2021/01/07 01:01:45;;;;;;;109.05;59.30;;;14.20;99.90;;;;;;4935011;28;20393;-73
2021/01/07 01:04:13;;;;;;;99.75;58.85;;;14.20;99.90;;;;;;4939478;28;20040;-75
2021/01/07 01:06:40;;;;;;;121.95;60.67;;;14.00;99.90;;;;;;4933603;29;20046;-71
2021/01/07 01:09:09;;;;;;;104.20;59.60;;;13.80;99.90;;;;;;4934830;28;20382;-72
2021/01/07 01:11:43;;;;;;;103.97;55.10;;;13.60;99.90;;;;;;4934101;28;20042;-72
2021/01/07 01:14:12;;;;;;;100.13;56.95;;;13.60;99.90;;;;;;4938023;29;20035;-73
2021/01/07 01:16:38;;;;;;;;;;;13.60;99.90;;;;;;4934362;29;20887;-75
2021/01/07 01:19:05;;;;;;;101.72;59.85;;;13.40;99.90;;;;;;4937463;29;19937;-72
2021/01/07 01:21:33;;;;;;;108.88;60.90;;;13.50;99.90;;;;;;4937632;28;20031;-70
2021/01/07 01:24:00;;;;;;;108.30;56.88;;;13.60;99.90;;;;;;4937808;28;20082;-72
2021/01/07 01:26:26;;;;;;;97.20;55.95;;;13.50;99.90;;;;;;4942390;29;20035;-71
2021/01/07 01:28:53;;;;;;;100.18;55.10;;;13.50;99.90;;;;;;4938082;28;20023;-72
2021/01/07 01:31:20;;;;;;;93.45;55.47;;;13.50;99.90;;;;;;4947954;29;20032;-68
2021/01/07 01:33:46;;;;;;;110.28;60.67;;;13.50;99.90;;;;;;4937431;28;20032;-70
2021/01/07 01:36:13;;;;;;;121.68;64.13;;;13.40;99.90;;;;;;4942941;29;20028;-71
2021/01/07 01:38:40;;;;;;;125.65;62.72;;;13.30;99.90;;;;;;4937549;29;20039;-69
2021/01/07 01:41:07;;;;;;;127.50;62.88;;;13.30;99.90;;;;;;4946532;28;20147;-70
2021/01/07 01:43:34;;;;;;;111.28;59.40;;;13.30;99.90;;;;;;4942852;29;20027;-68
2021/01/07 01:46:02;;;;;;;109.50;60.58;;;13.30;99.90;;;;;;4941183;29;20035;-68
2021/01/07 01:48:29;;;;;;;112.68;58.78;;;13.30;99.90;;;;;;4942128;28;20024;-69
2021/01/07 01:50:58;;;;;;;115.25;60.40;;;13.20;99.90;;;;;;4944988;29;20097;-69
2021/01/07 01:53:25;;;;;;;116.50;62.15;;;13.30;99.90;;;;;;4943992;28;20036;-69
2021/01/07 01:55:52;;;;;;;121.43;64.75;;;13.30;99.90;;;;;;4938901;29;20032;-67
2021/01/07 01:58:20;;;;;;;117.63;60.33;;;13.20;99.90;;;;;;4942645;29;20048;-69
2021/01/07 02:00:47;;;;;;;113.25;60.63;;;13.20;99.90;;;;;;4939212;29;20031;-70
2021/01/07 02:03:14;;;;;;;122.15;62.15;;;13.00;99.90;;;;;;4942392;28;20035;-72
2021/01/07 02:05:40;;;;;;;100.60;53.83;;;13.00;99.90;;;;;;4941800;29;20055;-72
2021/01/07 02:08:09;;;;;;;117.28;61.15;;;12.80;99.90;;;;;;4950327;28;20024;-72
2021/01/07 02:10:36;;;;;;;116.65;57.92;;;12.70;99.90;;;;;;4945541;28;20417;-72
2021/01/07 02:13:04;;;;;;;133.25;62.13;;;12.60;99.90;;;;;;4941304;29;20039;-71
2021/01/07 02:15:32;;;;;;;121.60;59.70;;;12.70;99.90;;;;;;4939168;29;20345;-70
2021/01/07 02:17:58;;;;;;;136.07;64.55;;;12.60;99.90;;;;;;4948085;28;20062;-71
2021/01/07 02:20:26;;;;;;;135.32;63.58;;;12.40;99.90;;;;;;4948517;29;20051;-72
2021/01/07 02:22:56;;;;;;;118.80;61.92;;;12.40;99.90;;;;;;4951105;29;20045;-72
2021/01/07 02:25:23;;;;;;;127.35;61.83;;;12.40;99.90;;;;;;4954726;28;20047;-69
2021/01/07 02:27:51;;;;;;;122.10;59.75;;;12.50;99.90;;;;;;4941992;28;20028;-69
2021/01/07 02:30:18;;;;;;;120.50;59.17;;;12.50;99.90;;;;;;4950799;29;20039;-69
2021/01/07 02:32:48;;;;;;;133.23;64.90;;;12.30;99.90;;;;;;4951798;28;20095;-67
2021/01/07 02:35:15;;;;;;;147.75;69.07;;;12.10;99.90;;;;;;4941680;28;20035;-68
2021/01/07 02:37:41;;;;;;;137.63;64.90;;;12.00;99.90;;;;;;4941782;28;20043;-71
2021/01/07 02:40:10;;;;;;;140.13;66.00;;;11.90;99.90;;;;;;4953135;28;20146;-73
2021/01/07 02:42:37;;;;;;;133.32;64.10;;;12.00;99.90;;;;;;4940189;29;20094;-69
2021/01/07 02:45:05;;;;;;;126.85;65.07;;;12.00;99.90;;;;;;4951278;29;20051;-70
2021/01/07 02:47:32;;;;;;;128.93;66.22;;;12.10;99.90;;;;;;4952252;28;20047;-69
2021/01/07 02:49:59;;;;;;;136.25;65.45;;;12.30;99.90;;;;;;4944638;28;20488;-68
2021/01/07 02:52:26;;;;;;;128.20;62.28;;;12.30;99.90;;;;;;4946592;28;20721;-68
2021/01/07 02:54:52;;;;;;;140.50;65.25;;;12.20;99.90;;;;;;4949381;29;20032;-68
2021/01/07 02:57:19;;;;;;;132.55;67.80;;;12.00;99.90;;;;;;4948249;29;20054;-68
2021/01/07 02:59:45;;;;;;;158.05;71.43;;;12.00;99.90;;;;;;4942368;29;20036;-66
2021/01/07 03:02:12;;;;;;;164.90;77.30;;;12.10;99.90;;;;;;4948178;29;20067;-67
2021/01/07 03:04:39;;;;;;;130.23;65.07;;;12.30;99.90;;;;;;4943434;28;20568;-68
2021/01/07 03:07:05;;;;;;;134.05;67.78;;;12.40;99.90;;;;;;4942099;28;20066;-67
2021/01/07 03:09:32;;;;;;;154.75;73.63;;;12.30;99.90;;;;;;4938659;29;20038;-68
2021/01/07 03:12:12;;;;;;;146.38;71.88;;;12.30;99.90;;;;;;4949906;29;20030;-67
2021/01/07 03:14:39;;;;;;;143.23;71.60;;;12.40;99.90;;;;;;4938869;28;20059;-68
2021/01/07 03:17:06;;;;;;;139.50;69.20;;;12.50;99.90;;;;;;4943231;29;20425;-69
2021/01/07 03:19:33;;;;;;;158.02;69.68;;;12.30;99.90;;;;;;4945798;29;20126;-69
2021/01/07 03:22:02;;;;;;;175.32;79.57;;;12.20;99.90;;;;;;4939902;28;20031;-69
2021/01/07 03:24:31;;;;;;;159.43;74.93;;;12.40;99.90;;;;;;4940457;29;20128;-69
2021/01/07 03:26:59;;;;;;;164.25;72.25;;;12.40;99.90;;;;;;4939969;29;20170;-68
2021/01/07 03:29:26;;;;;;;209.95;84.82;;;12.40;99.90;;;;;;4946964;29;20637;-69
2021/01/07 03:31:53;;;;;;;202.80;82.88;;;12.30;99.90;;;;;;4947534;28;20339;-70
2021/01/07 03:34:20;;;;;;;170.13;79.05;;;12.40;99.90;;;;;;4948417;28;20054;-69
2021/01/07 03:36:46;;;;;;;171.70;77.07;;;12.30;99.90;;;;;;4946724;29;20290;-68
2021/01/07 03:39:13;;;;;;;154.25;74.57;;;12.30;99.90;;;;;;4941601;29;20024;-70
2021/01/07 03:41:40;;;;;;;144.95;70.88;;;12.20;99.90;;;;;;4941382;28;20059;-69
2021/01/07 03:44:06;;;;;;;179.35;79.78;;;12.30;99.90;;;;;;4940480;28;20023;-69
2021/01/07 03:46:33;;;;;;;166.00;74.80;;;12.30;99.90;;;;;;4937110;28;20467;-69
2021/01/07 03:49:00;;;;;;;163.40;75.53;;;12.10;99.90;;;;;;4938236;29;20150;-69
2021/01/07 03:51:27;;;;;;;147.52;74.55;;;12.00;99.90;;;;;;4940681;29;20161;-70
2021/01/07 03:53:53;;;;;;;167.93;77.70;;;11.90;99.90;;;;;;4947298;29;20057;-70
2021/01/07 03:56:20;;;;;;;178.45;77.75;;;11.80;99.90;;;;;;4948276;29;20110;-70
2021/01/07 03:58:46;;;;;;;161.48;74.88;;;11.80;99.90;;;;;;4944633;29;20578;-70
2021/01/07 04:01:13;;;;;;;168.20;75.30;;;11.80;99.90;;;;;;4944697;29;20063;-70
2021/01/07 04:03:39;;;;;;;175.65;78.82;;;11.70;99.90;;;;;;4944642;28;20118;-69
2021/01/07 04:06:06;;;;;;;170.82;77.28;;;11.60;99.90;;;;;;4945066;28;20283;-67
2021/01/07 04:08:33;;;;;;;189.30;82.15;;;11.50;99.90;;;;;;4945152;29;20027;-67
2021/01/07 04:11:00;;;;;;;165.57;76.50;;;11.50;99.90;;;;;;4947343;29;20055;-67
2021/01/07 04:13:26;;;;;;;195.60;83.18;;;11.50;99.90;;;;;;4946875;29;20034;-67
2021/01/07 04:15:53;;;;;;;185.60;85.03;;;11.50;99.90;;;;;;4947081;29;20024;-67
2021/01/07 04:18:20;;;;;;;188.63;83.38;;;11.50;99.90;;;;;;4947461;29;20035;-67
2021/01/07 04:20:47;;;;;;;155.52;73.65;;;11.60;99.90;;;;;;4946264;29;20598;-67
2021/01/07 04:23:13;;;;;;;180.32;72.43;;;11.80;99.90;;;;;;4946571;29;20071;-68
2021/01/07 04:25:40;;;;;;;189.00;83.28;;;11.80;99.90;;;;;;4946950;29;20023;-67
2021/01/07 04:28:07;;;;;;;174.07;75.43;;;11.80;99.90;;;;;;4947503;29;20098;-68
2021/01/07 04:30:33;;;;;;;210.82;90.45;;;11.90;99.90;;;;;;4946265;29;20031;-67
2021/01/07 04:33:00;;;;;;;183.07;80.05;;;12.00;99.90;;;;;;4944628;28;20035;-72
2021/01/07 04:35:27;;;;;;;187.98;78.68;;;12.00;99.90;;;;;;4942954;28;20422;-68
2021/01/07 04:37:53;;;;;;;210.35;84.00;;;12.00;99.90;;;;;;4946375;29;20030;-68
2021/01/07 04:40:20;;;;;;;235.52;88.53;;;12.00;99.90;;;;;;4946620;28;20066;-68
2021/01/07 04:42:47;;;;;;;216.65;86.55;;;12.10;99.90;;;;;;4945989;28;20046;-67
2021/01/07 04:45:14;;;;;;;173.02;76.60;;;12.20;99.90;;;;;;4946591;28;20031;-68
2021/01/07 04:47:41;;;;;;;175.00;75.88;;;12.20;99.90;;;;;;4945965;28;20066;-68
2021/01/07 04:50:08;;;;;;;188.98;81.13;;;12.20;99.90;;;;;;4943736;29;20063;-68
2021/01/07 04:52:35;;;;;;;206.45;83.55;;;12.20;99.90;;;;;;4946769;28;20090;-68
2021/01/07 04:55:15;;;;;;;194.75;81.35;;;12.20;99.90;;;;;;5077773;27;20498;-67
2021/01/07 04:57:42;;;;;;;182.98;74.03;;;12.30;99.90;;;;;;5077555;28;20036;-66
2021/01/07 05:00:12;;;;;;;181.52;73.45;;;12.40;99.90;;;;;;5076232;28;20090;-68
2021/01/07 05:02:40;;;;;;;190.18;78.05;;;12.30;99.90;;;;;;5075726;28;20410;-68
2021/01/07 05:05:07;;;;;;;176.25;73.38;;;12.40;99.90;;;;;;5076752;28;20433;-69
2021/01/07 05:07:40;;;;;;;183.02;73.13;;;12.50;99.90;;;;;;5076982;28;20032;-67
2021/01/07 05:10:11;;;;;;;186.45;72.90;;;12.40;99.90;;;;;;5075754;28;20028;-69
2021/01/07 05:12:39;;;;;;;168.55;70.40;;;12.40;99.90;;;;;;5074947;28;20469;-68
2021/01/07 05:15:07;;;;;;;171.48;72.40;;;12.50;99.90;;;;;;5076575;28;20154;-67
2021/01/07 05:17:36;;;;;;;246.13;79.78;;;12.40;99.90;;;;;;5075486;28;20021;-68
2021/01/07 05:20:09;;;;;;;;;;;12.50;99.90;;;;;;5079842;28;20534;-68
2021/01/07 05:22:40;;;;;;;199.25;71.22;;;12.40;99.90;;;;;;5075649;28;19908;-68
2021/01/07 05:25:14;;;;;;;167.57;68.18;;;12.30;99.90;;;;;;5074070;28;20794;-68
2021/01/07 05:27:41;;;;;;;311.98;77.95;;;12.30;99.90;;;;;;5075435;28;20043;-69
2021/01/07 05:30:10;;;;;;;213.88;66.30;;;12.20;99.90;;;;;;5075428;28;20028;-69
2021/01/07 05:32:39;;;;;;;222.65;72.97;;;12.20;99.90;;;;;;5075965;28;20039;-68
2021/01/07 05:35:08;;;;;;;172.82;63.42;;;12.20;99.90;;;;;;5076884;28;20040;-68
2021/01/07 05:37:36;;;;;;;180.38;63.30;;;12.20;99.90;;;;;;5076641;28;20021;-68
2021/01/07 05:40:06;;;;;;;210.90;69.38;;;12.20;99.90;;;;;;5075803;28;20037;-68
2021/01/07 05:42:41;;;;;;;156.63;56.33;;;12.10;99.90;;;;;;5076046;28;20082;-68
2021/01/07 05:45:10;;;;;;;186.35;64.13;;;12.00;99.90;;;;;;5074187;28;20028;-68
2021/01/07 05:47:44;;;;;;;184.90;64.10;;;11.90;99.90;;;;;;5074878;28;20055;-70
2021/01/07 05:50:12;;;;;;;134.55;57.47;;;11.90;99.90;;;;;;5072410;28;20559;-68
2021/01/07 05:52:43;;;;;;;142.73;60.40;;;11.90;99.90;;;;;;5074482;28;20396;-69
2021/01/07 05:55:14;;;;;;;151.00;61.20;;;11.90;99.90;;;;;;5072002;28;20078;-69
2021/01/07 05:57:42;;;;;;;162.25;63.58;;;11.90;99.90;;;;;;5075585;28;20029;-69
2021/01/07 06:00:17;;;;;;;158.07;61.72;;;11.90;99.90;;;;;;5076409;28;20119;-68
2021/01/07 06:02:45;;;;;;;132.70;57.63;;;11.80;99.90;;;;;;5074470;28;20043;-70
2021/01/07 06:05:13;;;;;;;130.15;57.30;;;11.80;99.90;;;;;;5069409;28;20374;-70
2021/01/07 06:07:41;;;;;;;112.72;51.83;;;11.70;99.90;;;;;;5057961;28;20139;-69
2021/01/07 06:10:10;;;;;;;129.18;54.83;;;11.70;99.90;;;;;;5063311;28;20173;-68
2021/01/07 06:12:37;;;;;;;;;;;11.60;99.90;;;;;;5062986;28;20104;-69
2021/01/07 06:15:11;;;;;;;139.23;55.33;;;11.40;99.90;;;;;;5063691;28;19916;-67
2021/01/07 06:17:38;;;;;;;131.18;56.53;;;11.30;99.90;;;;;;5061010;28;20071;-69
2021/01/07 06:20:20;;;;;;;146.57;59.60;;;11.30;99.90;;;;;;5060698;28;20302;-69
2021/01/07 06:22:54;;;;;;;147.43;61.63;;;11.20;99.90;;;;;;5061284;28;20017;-68
2021/01/07 06:25:22;;;;;;;152.52;60.35;;;11.10;99.90;;;;;;5061920;28;20780;-69
2021/01/07 06:27:50;;;;;;;183.35;65.70;;;11.20;99.90;;;;;;5062872;28;20075;-69
2021/01/07 06:30:17;;;;;;;172.67;64.70;;;11.20;99.90;;;;;;5061693;28;20036;-69
2021/01/07 06:32:46;;;;;;;145.05;55.80;;;11.20;99.90;;;;;;5060219;28;20036;-69
2021/01/07 06:35:15;;;;;;;160.85;61.30;;;11.30;99.90;;;;;;5060940;28;20323;-71
2021/01/07 06:37:47;;;;;;;135.43;54.83;;;11.30;99.90;;;;;;5061907;28;20123;-69
2021/01/07 06:40:16;;;;;;;154.90;60.83;;;11.20;99.90;;;;;;5059580;28;20496;-70
2021/01/07 06:42:44;;;;;;;153.70;57.65;;;11.10;99.90;;;;;;5061574;28;20402;-69
2021/01/07 06:45:12;;;;;;;153.43;61.05;;;11.00;99.90;;;;;;5060588;28;20025;-69
2021/01/07 06:47:47;;;;;;;182.05;64.20;;;11.00;99.90;;;;;;5061659;28;20146;-68
2021/01/07 06:50:15;;;;;;;155.52;62.85;;;11.00;99.90;;;;;;5059076;28;20398;-69
2021/01/07 06:52:47;;;;;;;164.65;64.35;;;11.00;99.90;;;;;;5059767;28;20037;-69
2021/01/07 06:55:18;;;;;;;242.70;72.70;;;11.00;99.90;;;;;;5059364;28;20079;-69
2021/01/07 06:57:46;;;;;;;210.52;68.60;;;10.90;99.90;;;;;;5060163;28;20033;-68
2021/01/07 07:00:15;;;;;;;660.55;117.00;;;10.80;99.90;;;;;;5058697;28;20063;-68
2021/01/07 07:03:03;;;;;;;1122.28;104.65;;;10.70;99.90;;;;;;5057688;28;20024;-68
2021/01/07 07:05:35;;;;;;;1131.17;107.87;;;10.40;99.90;;;;;;5059554;28;20024;-70
2021/01/07 07:08:10;;;;;;;1085.90;96.82;;;10.30;99.90;;;;;;5059727;28;20028;-70
2021/01/07 07:10:36;;;;;;;968.67;94.82;;;10.10;99.90;;;;;;5059611;28;20070;-69
2021/01/07 07:13:16;;;;;;;616.05;83.68;;;10.10;99.90;;;;;;5059280;28;20036;-70
2021/01/07 07:15:43;;;;;;;484.13;73.40;;;10.00;99.90;;;;;;5059444;28;20040;-70
2021/01/07 07:18:09;;;;;;;199.10;65.20;;;10.20;99.90;;;;;;5060511;28;20039;-70
2021/01/07 07:20:41;;;;;;;295.30;73.57;;;10.00;99.90;;;;;;5061170;28;20364;-69
2021/01/07 07:23:20;;;;;;;238.27;65.53;;;9.90;99.90;;;;;;5062003;28;20328;-69
2021/01/07 07:25:51;;;;;;;154.93;57.33;;;9.90;99.90;;;;;;5059191;28;20033;-69
2021/01/07 07:28:19;;;;;;;286.23;77.40;;;10.00;99.90;;;;;;5060049;28;20032;-69
2021/01/07 07:30:49;;;;;;;157.95;60.22;;;10.10;99.90;;;;;;5060988;28;20461;-69
2021/01/07 07:33:36;;;;;;;150.50;57.17;;;10.20;99.90;;;;;;5061422;28;20029;-69
2021/01/07 07:36:05;;;;;;;163.07;61.45;;;10.00;99.90;;;;;;5059908;28;20135;-69
2021/01/07 07:38:36;;;;;;;157.75;59.10;;;9.90;99.90;;;;;;5059668;28;20029;-69
2021/01/07 07:41:08;;;;;;;153.63;58.30;;;9.70;99.90;;;;;;5060879;28;20024;-69
2021/01/07 07:43:36;;;;;;;143.45;56.15;;;9.70;99.90;;;;;;5056621;28;20071;-69
2021/01/07 07:46:05;;;;;;;153.60;61.33;;;9.70;99.90;;;;;;5060269;28;20047;-70
2021/01/07 07:48:34;;;;;;;147.40;59.15;;;9.60;99.90;;;;;;5060639;28;20039;-69
2021/01/07 07:51:08;;;;;;;172.57;61.63;;;9.60;99.90;;;;;;5058601;28;20130;-70
2021/01/07 07:53:35;;;;;;;143.85;57.80;;;9.70;99.90;;;;;;5060040;28;20083;-69
2021/01/07 07:56:02;;;;;;;163.38;59.55;;;9.80;99.90;;;;;;5060269;28;20028;-71
2021/01/07 07:58:29;;;;;;;128.77;55.22;;;9.80;99.90;;;;;;5060047;28;20107;-69
2021/01/07 08:00:58;;;;;;;142.90;56.63;;;9.90;99.90;;;;;;5058424;28;20033;-68
2021/01/07 08:03:32;;;;;;;183.82;62.53;;;9.70;99.90;;;;;;5059061;28;20028;-69
2021/01/07 08:06:00;;;;;;;141.95;55.25;;;9.70;99.90;;;;;;5059605;28;20041;-69
2021/01/07 08:08:31;;;;;;;134.75;54.58;;;9.70;99.90;;;;;;5057788;28;20059;-70
2021/01/07 08:11:00;;;;;;;129.18;55.42;;;9.70;99.90;;;;;;5060409;28;20039;-69
2021/01/07 08:13:29;;;;;;;132.55;53.92;;;9.60;99.90;;;;;;5059690;28;20036;-70
2021/01/07 08:16:01;;;;;;;132.13;54.35;;;9.50;99.90;;;;;;5058772;28;20037;-69
2021/01/07 08:18:29;;;;;;;116.28;51.08;;;9.30;99.90;;;;;;5059907;28;20021;-68
2021/01/07 08:21:08;;;;;;;117.73;53.07;;;9.30;99.90;;;;;;5060079;28;20163;-69
2021/01/07 08:23:35;;;;;;;144.25;56.55;;;9.20;99.90;;;;;;5061079;28;20033;-69
2021/01/07 08:26:03;;;;;;;148.45;55.65;;;9.30;99.90;;;;;;5059175;28;20418;-70
2021/01/07 08:28:40;;;;;;;161.43;60.22;;;9.50;99.90;;;;;;5058728;28;20036;-69
2021/01/07 08:31:15;;;;;;;164.52;61.53;;;9.70;99.90;;;;;;5058766;28;20430;-69
2021/01/07 08:33:42;;;;;;;161.30;62.92;;;9.70;99.90;;;;;;5059805;28;20079;-69
2021/01/07 08:36:10;;;;;;;135.02;54.95;;;9.80;99.90;;;;;;5056986;28;20017;-69
2021/01/07 08:38:38;;;;;;;131.10;57.50;;;9.90;99.90;;;;;;5057424;28;20039;-69
2021/01/07 08:41:23;;;;;;;150.38;57.75;;;10.00;99.90;;;;;;5057852;28;20051;-69
2021/01/07 08:43:51;;;;;;;143.50;58.80;;;10.00;99.90;;;;;;5056869;28;20036;-68
2021/01/07 08:46:18;;;;;;;141.40;57.17;;;10.10;99.90;;;;;;5057830;28;20118;-69
2021/01/07 08:49:03;;;;;;;149.13;59.55;;;10.30;99.90;;;;;;5057266;28;20032;-68
2021/01/07 08:51:36;;;;;;;215.30;69.63;;;10.40;99.90;;;;;;5058636;28;20048;-70
2021/01/07 08:54:12;;;;;;;190.50;66.82;;;10.50;99.90;;;;;;5057860;28;20362;-69
2021/01/07 08:56:41;;;;;;;212.13;68.43;;;10.60;99.90;;;;;;5059513;28;20123;-69
2021/01/07 08:59:17;;;;;;;233.70;73.70;;;10.60;99.90;;;;;;5059040;28;20465;-68
2021/01/07 09:01:49;;;;;;;249.93;72.97;;;10.70;99.90;;;;;;5059358;28;20029;-69
2021/01/07 09:04:43;;;;;;;161.02;58.35;;;10.70;99.90;;;;;;5059792;28;20657;-69
2021/01/07 09:07:21;;;;;;;222.68;67.15;;;10.70;99.90;;;;;;5056954;28;20044;-69
2021/01/07 09:09:54;;;;;;;174.50;60.17;;;10.80;99.90;;;;;;5059149;28;20123;-69
2021/01/07 09:12:23;;;;;;;229.25;68.78;;;10.80;99.90;;;;;;5058780;28;20039;-70
2021/01/07 09:14:52;;;;;;;380.63;79.30;;;10.90;99.90;;;;;;5059167;28;20865;-69
2021/01/07 09:17:26;;;;;;;251.35;71.90;;;10.90;99.90;;;;;;5059842;28;20090;-69
2021/01/07 09:19:54;;;;;;;736.85;123.05;;;11.00;99.90;;;;;;5059475;28;20024;-69
2021/01/07 09:22:24;;;;;;;552.78;87.68;;;11.10;99.90;;;;;;5060974;28;20024;-69
2021/01/07 09:24:52;;;;;;;433.20;82.53;;;11.10;99.90;;;;;;5059786;28;20112;-69
2021/01/07 09:27:22;;;;;;;341.15;72.43;;;11.00;99.90;;;;;;5059095;28;20138;-70
2021/01/07 09:29:49;;;;;;;371.40;68.63;;;11.00;99.90;;;;;;5058911;28;20414;-70
2021/01/07 09:32:15;;;;;;;360.05;69.80;;;11.10;99.90;;;;;;5059146;28;20415;-70
2021/01/07 09:34:43;;;;;;;833.47;101.25;;;11.00;99.90;;;;;;5059525;28;20033;-69
2021/01/07 09:37:20;;;;;;;294.63;67.50;;;11.00;99.90;;;;;;5058513;28;20047;-69
2021/01/07 09:39:49;;;;;;;358.77;65.93;;;11.00;99.90;;;;;;5060714;28;20095;-69
2021/01/07 09:42:17;;;;;;;303.77;69.45;;;11.00;99.90;;;;;;5062281;28;20033;-69
2021/01/07 09:44:44;;;;;;;396.13;72.77;;;10.90;99.90;;;;;;5062198;28;20028;-70
2021/01/07 09:47:11;;;;;;;239.30;56.53;;;10.70;99.90;;;;;;5062828;28;20270;-71
2021/01/07 09:49:37;;;;;;;197.00;56.55;;;10.70;99.90;;;;;;5061216;28;20028;-69
2021/01/07 09:52:05;;;;;;;245.15;65.38;;;10.70;99.90;;;;;;5063388;28;20033;-69
2021/01/07 09:54:32;;;;;;;122.57;51.90;;;10.70;99.90;;;;;;5061603;28;20049;-69
2021/01/07 09:57:01;;;;;;;105.50;49.08;;;10.50;99.90;;;;;;5063374;28;20116;-70
2021/01/07 09:59:29;;;;;;;93.97;46.65;;;10.40;99.90;;;;;;5061783;28;20028;-70
2021/01/07 10:02:09;;;;;;;122.00;51.40;;;10.30;99.90;;;;;;5062701;28;20453;-71
2021/01/07 10:04:37;;;;;;;155.07;56.25;;;10.40;99.90;;;;;;5063751;28;20037;-69
2021/01/07 10:07:04;;;;;;;121.90;48.83;;;10.30;99.90;;;;;;5061515;28;20059;-69
2021/01/07 10:09:31;;;;;;;80.68;41.28;;;10.20;99.90;;;;;;5061602;28;20031;-68
2021/01/07 10:11:58;;;;;;;93.15;44.72;;;10.20;99.90;;;;;;5061314;28;20170;-69
2021/01/07 10:14:27;;;;;;;89.47;41.75;;;10.20;99.90;;;;;;5062674;28;20037;-68
2021/01/07 10:16:57;;;;;;;128.95;48.92;;;10.10;99.90;;;;;;5061508;28;20025;-68
2021/01/07 10:19:26;;;;;;;130.93;49.42;;;10.10;99.90;;;;;;5061773;28;20043;-68
2021/01/07 10:22:01;;;;;;;81.03;40.88;;;10.00;99.90;;;;;;5061831;28;21703;-69
2021/01/07 10:24:30;;;;;;;81.20;38.97;;;9.90;99.90;;;;;;5061680;28;20025;-68
2021/01/07 10:26:59;;;;;;;117.80;46.23;;;9.80;99.90;;;;;;5062370;28;20028;-68
2021/01/07 10:29:28;;;;;;;96.93;43.88;;;9.80;99.90;;;;;;5061735;28;20025;-69
2021/01/07 10:31:58;;;;;;;;;;;9.70;99.90;;;;;;5064068;28;20040;-70
2021/01/07 10:34:27;;;;;;;103.15;46.47;;;9.60;99.90;;;;;;5061643;28;19943;-70
2021/01/07 10:36:56;;;;;;;82.13;40.97;;;9.60;99.90;;;;;;5062758;28;20059;-70
2021/01/07 10:39:24;;;;;;;78.45;40.72;;;9.50;99.90;;;;;;5061533;28;20084;-70
2021/01/07 10:41:54;;;;;;;77.15;40.00;;;9.40;99.90;;;;;;5062238;28;20025;-70
2021/01/07 10:44:21;;;;;;;68.30;36.50;;;9.30;99.90;;;;;;5063214;28;20362;-69
2021/01/07 10:46:56;;;;;;;69.82;38.10;;;9.30;99.90;;;;;;5061303;28;20627;-69
2021/01/07 10:49:27;;;;;;;76.15;39.33;;;9.20;99.90;;;;;;5061838;28;20024;-69
2021/01/07 10:52:34;;;;;;;71.38;36.15;;;9.20;99.90;;;;;;5062035;28;20037;-72
2021/01/07 10:55:24;;;;;;;66.57;35.15;;;9.00;99.90;;;;;;5057816;28;20044;-70
2021/01/07 10:58:00;;;;;;;149.38;39.25;;;8.90;99.90;;;;;;5061776;28;20434;-68
2021/01/07 11:01:04;;;;;;;396.10;51.20;;;8.70;99.90;;;;;;5061315;28;20089;-69
2021/01/07 11:03:55;;;;;;;398.50;46.72;;;8.40;99.90;;;;;;5060726;28;20135;-68
2021/01/07 11:06:25;;;;;;;442.52;43.70;;;8.30;99.90;;;;;;5061751;28;20033;-69
2021/01/07 11:09:26;;;;;;;287.13;31.42;;;8.20;99.90;;;;;;5060736;28;20062;-68
2021/01/07 11:12:03;;;;;;;98.72;28.35;;;8.20;99.90;;;;;;5058081;28;20056;-68
2021/01/07 11:14:41;;;;;;;113.20;29.55;;;8.30;99.90;;;;;;5060993;28;20028;-69
2021/01/07 11:17:18;;;;;;;60.22;25.98;;;8.30;99.90;;;;;;5063052;28;20331;-69
2021/01/07 11:19:50;;;;;;;56.85;25.58;;;8.20;99.90;;;;;;5060321;28;20410;-69
2021/01/07 11:22:30;;;;;;;65.47;25.73;;;8.30;99.90;;;;;;5062750;28;20040;-68
2021/01/07 11:25:00;;;;;;;40.05;20.77;;;8.30;99.90;;;;;;5060815;28;20029;-69
2021/01/07 11:27:29;;;;;;;27.50;18.88;;;8.30;99.90;;;;;;5060222;28;20029;-68
2021/01/07 11:29:56;;;;;;;35.15;21.25;;;8.30;99.90;;;;;;5059484;28;20545;-69
2021/01/07 11:32:23;;;;;;;29.83;19.40;;;8.40;99.90;;;;;;5061566;28;20136;-69
2021/01/07 11:34:50;;;;;;;58.20;20.52;;;8.40;99.90;;;;;;5060839;28;20071;-69
2021/01/07 11:37:26;;;;;;;171.85;36.33;;;8.30;99.90;;;;;;5059720;28;20017;-68
2021/01/07 11:39:55;;;;;;;91.15;28.48;;;8.20;99.90;;;;;;5057567;28;20700;-69
2021/01/07 11:42:45;;;;;;;38.40;21.15;;;8.20;99.90;;;;;;5060477;28;20028;-69
2021/01/07 11:45:21;;;;;;;56.20;26.95;;;8.10;99.90;;;;;;5059820;28;20112;-69
2021/01/07 11:47:56;;;;;;;72.70;29.08;;;8.10;99.90;;;;;;5058247;28;20067;-69
2021/01/07 11:50:29;;;;;;;43.08;22.83;;;8.00;99.90;;;;;;5061709;28;20028;-69
2021/01/07 11:52:56;;;;;;;43.10;24.27;;;7.90;99.90;;;;;;5061845;28;20029;-70
2021/01/07 11:55:23;;;;;;;52.75;26.58;;;7.90;99.90;;;;;;5058808;28;20326;-69
2021/01/07 11:57:51;;;;;;;44.97;24.88;;;7.80;99.90;;;;;;5060988;28;20029;-70
2021/01/07 12:00:19;;;;;;;44.05;24.27;;;7.70;99.90;;;;;;5061171;28;20575;-70
2021/01/07 12:02:48;;;;;;;40.13;22.88;;;7.60;99.90;;;;;;5059720;28;20029;-70
2021/01/07 12:05:17;;;;;;;28.08;19.95;;;7.50;99.90;;;;;;5060404;28;20059;-69
2021/01/07 12:07:47;;;;;;;30.88;20.77;;;7.50;99.90;;;;;;5061114;28;20333;-70
2021/01/07 12:10:17;;;;;;;41.00;24.17;;;7.50;99.90;;;;;;5060796;28;20039;-70
2021/01/07 12:12:57;;;;;;;27.15;19.10;;;7.50;99.90;;;;;;5060652;28;20757;-70
2021/01/07 12:15:25;;;;;;;34.25;21.38;;;7.50;99.90;;;;;;5060894;28;20031;-69
2021/01/07 12:17:54;;;;;;;33.45;21.13;;;7.50;99.90;;;;;;5059460;28;20029;-70
2021/01/07 12:20:21;;;;;;;36.70;23.05;;;7.50;99.90;;;;;;5059822;28;20394;-70
2021/01/07 12:22:51;;;;;;;41.75;23.33;;;7.40;99.90;;;;;;5061866;28;20123;-69
2021/01/07 12:25:18;;;;;;;34.83;22.80;;;7.30;99.90;;;;;;5060589;28;20044;-69
2021/01/07 12:27:48;;;;;;;38.65;23.95;;;7.20;99.90;;;;;;5059635;28;20044;-69
2021/01/07 12:30:18;;;;;;;45.72;24.70;;;7.10;99.90;;;;;;5060031;28;20046;-69
2021/01/07 12:32:54;;;;;;;34.88;22.50;;;7.20;99.90;;;;;;5059311;28;20067;-69
2021/01/07 12:35:25;;;;;;;38.78;23.88;;;7.00;99.90;;;;;;5061058;28;20083;-68